createdAt,value
2022-08-09T00:03:03.104Z,0
2022-08-09T00:08:31.326Z,0
2022-08-09T00:13:27.987Z,0
2022-08-09T00:18:40.434Z,0
2022-08-09T00:23:54.408Z,0
2022-08-09T00:29:12.270Z,0
2022-08-09T00:34:19.105Z,0
2022-08-09T00:40:01.989Z,0
2022-08-09T00:44:42.035Z,0
2022-08-09T00:49:54.746Z,0
2022-08-09T00:55:06.779Z,0
2022-08-09T01:05:46.308Z,0
2022-08-09T01:10:43.894Z,0
2022-08-09T01:15:56.090Z,0
2022-08-09T01:21:09.874Z,0
2022-08-09T01:26:21.024Z,0
2022-08-09T01:32:28.255Z,0
2022-08-09T01:36:48.428Z,0
2022-08-09T01:42:04.072Z,0
2022-08-09T01:47:12.979Z,0
2022-08-09T01:52:25.399Z,0
2022-08-09T01:57:40.009Z,0
2022-08-09T02:02:49.948Z,0
2022-08-09T02:08:36.201Z,0
2022-08-09T02:13:14.578Z,0
2022-08-09T02:18:26.943Z,0
2022-08-09T02:23:39.697Z,0
2022-08-09T02:28:51.792Z,0
2022-08-09T02:34:07.640Z,0
2022-08-09T02:39:20.200Z,0
2022-08-09T02:44:29.228Z,0
2022-08-09T02:49:41.609Z,0
2022-08-09T02:54:53.941Z,0
2022-08-09T03:00:20.521Z,0
2022-08-09T03:05:18.251Z,0
2022-08-09T03:10:30.692Z,0
2022-08-09T03:16:04.428Z,0
2022-08-09T03:20:55.521Z,0
2022-08-09T03:26:08.040Z,4
2022-08-09T03:31:21.464Z,223
2022-08-09T03:36:32.792Z,480
2022-08-09T03:41:46.099Z,798
2022-08-09T03:46:57.566Z,1147
2022-08-09T03:52:09.782Z,1695
2022-08-09T03:57:22.119Z,2168
2022-08-09T04:02:34.459Z,2619
2022-08-09T04:13:00.903Z,3463
2022-08-09T04:18:16.842Z,3854
2022-08-09T04:23:24.813Z,4245
2022-08-09T04:28:36.534Z,4521
2022-08-09T04:33:53.280Z,4894
2022-08-09T04:39:00.792Z,5112
2022-08-09T04:44:14.559Z,5244
2022-08-09T04:49:30.587Z,5186
2022-08-09T04:54:37.522Z,5122
2022-08-09T04:59:50.268Z,5198
2022-08-09T05:05:04.352Z,5198
2022-08-09T05:10:17.272Z,5200
2022-08-09T05:15:38.936Z,5248
2022-08-09T05:20:41.727Z,5186
2022-08-09T05:25:54.075Z,5195
2022-08-09T05:31:07.448Z,5117
2022-08-09T05:36:19.187Z,5154
2022-08-09T05:41:31.505Z,5248
2022-08-09T05:46:43.936Z,5248
2022-08-09T05:51:56.693Z,5223
2022-08-09T05:57:12.596Z,5246
2022-08-09T06:02:21.995Z,5246
2022-08-09T06:07:33.561Z,5216
2022-08-09T06:12:46.008Z,5248
2022-08-09T06:17:58.534Z,5227
2022-08-09T06:23:11.948Z,5250
2022-08-09T06:28:27.500Z,5198
2022-08-09T06:33:41.396Z,5158
2022-08-09T06:38:50.320Z,5207
2022-08-09T06:44:00.230Z,5221
2022-08-09T06:49:12.563Z,5221
2022-08-09T07:00:48.226Z,5181
2022-08-09T07:04:49.626Z,5204
2022-08-09T07:10:12.745Z,5223
2022-08-09T07:15:53.667Z,5223
2022-08-09T07:20:26.725Z,5227
2022-08-09T07:25:42.754Z,5193
2022-08-09T07:30:52.033Z,5255
2022-08-09T07:36:04.356Z,5234
2022-08-09T07:41:16.796Z,5230
2022-08-09T07:46:29.118Z,5237
2022-08-09T07:52:03.847Z,5175
2022-08-09T07:56:53.801Z,5257
2022-08-09T08:02:06.232Z,5230
2022-08-09T08:08:06.953Z,5230
2022-08-09T08:12:31.179Z,5002
2022-08-09T08:17:54.337Z,5186
2022-08-09T08:23:03.981Z,5262
2022-08-09T08:28:18.096Z,5241
2022-08-09T08:33:40.919Z,5232
2022-08-09T08:43:53.807Z,5232
2022-08-09T08:49:12.722Z,5200
2022-08-09T08:54:28.175Z,5186
2022-08-09T08:59:44.457Z,5255
2022-08-09T09:04:48.010Z,5207
2022-08-09T09:10:02.632Z,5234
2022-08-09T09:15:12.079Z,5264
2022-08-09T09:20:23.043Z,5152
2022-08-09T09:26:00.647Z,5221
2022-08-09T09:30:47.690Z,5269
2022-08-09T09:41:12.299Z,5264
2022-08-09T09:46:42.740Z,5271
2022-08-09T09:51:38.273Z,5188
2022-08-09T09:56:53.520Z,5276
2022-08-09T10:02:01.801Z,5257
2022-08-09T10:07:14.164Z,5204
2022-08-09T10:12:28.306Z,5216
2022-08-09T10:17:51.363Z,5264
2022-08-09T10:22:51.242Z,5246
2022-08-09T10:28:03.706Z,5257
2022-08-09T10:33:29.433Z,5287
2022-08-09T10:38:34.153Z,5287
2022-08-09T10:43:47.249Z,5269
2022-08-09T10:48:52.844Z,5278
2022-08-09T10:54:05.273Z,5257
2022-08-09T10:59:17.688Z,5299
2022-08-09T11:04:32.183Z,5278
2022-08-09T11:14:55.767Z,5269
2022-08-09T11:20:08.298Z,5273
2022-08-09T11:25:21.439Z,5230
2022-08-09T11:30:34.235Z,5239
2022-08-09T11:35:49.783Z,5303
2022-08-09T11:40:57.500Z,5299
2022-08-09T11:46:10.232Z,5303
2022-08-09T11:52:54.355Z,5301
2022-08-09T11:56:42.870Z,5276
2022-08-09T12:02:16.756Z,5296
2022-08-09T12:06:59.418Z,5273
2022-08-09T12:12:12.448Z,5299
2022-08-09T12:17:27.816Z,5303
2022-08-09T12:22:36.178Z,5253
2022-08-09T12:29:00.563Z,5310
2022-08-09T12:33:01.141Z,5331
2022-08-09T12:38:13.614Z,5278
2022-08-09T12:44:04.448Z,5336
2022-08-09T12:48:38.638Z,5331
2022-08-09T12:53:52.624Z,5310
2022-08-09T12:59:03.361Z,5322
2022-08-09T13:04:36.061Z,5310
2022-08-09T13:14:44.043Z,5317
2022-08-09T13:20:07.953Z,5317
2022-08-09T13:25:04.446Z,5301
2022-08-09T13:30:49.583Z,5326
2022-08-09T13:35:34.363Z,5306
2022-08-09T13:41:21.840Z,5319
2022-08-09T13:46:08.305Z,5273
2022-08-09T13:51:05.670Z,5214
2022-08-09T13:56:18.185Z,5299
2022-08-09T14:01:55.956Z,5273
2022-08-09T14:06:43.942Z,5315
2022-08-09T14:11:55.279Z,5326
2022-08-09T14:17:12.003Z,5296
2022-08-09T14:22:23.318Z,5301
2022-08-09T14:27:37.103Z,5310
2022-08-09T14:32:47.946Z,5338
2022-08-09T14:38:01.858Z,5292
2022-08-09T14:43:15.985Z,5333
2022-08-09T14:48:26.789Z,5326
2022-08-09T14:53:38.846Z,5361
2022-08-09T14:58:50.207Z,5361
2022-08-09T15:04:02.459Z,5290
2022-08-09T15:09:14.689Z,5319
2022-08-09T15:14:26.967Z,5294
2022-08-09T15:19:54.745Z,5324
2022-08-09T15:24:51.415Z,5296
2022-08-09T15:30:47.849Z,5313
2022-08-09T15:35:40.600Z,5271
2022-08-09T15:40:32.509Z,5301
2022-08-09T15:45:51.624Z,5255
2022-08-09T15:50:55.566Z,5294
2022-08-09T15:56:21.231Z,5354
2022-08-09T16:01:20.567Z,5338
2022-08-09T16:06:35.235Z,5308
2022-08-09T16:11:49.393Z,5303
2022-08-09T16:16:56.387Z,5354
2022-08-09T16:22:14.732Z,5349
2022-08-09T16:27:21.758Z,5313
2022-08-09T16:32:35.254Z,5287
2022-08-09T16:37:54.115Z,5285
2022-08-09T16:42:58.727Z,5292
2022-08-09T16:48:37.315Z,5278
2022-08-09T16:53:23.183Z,5315
2022-08-09T16:58:35.599Z,5308
2022-08-09T17:03:48.013Z,5347
2022-08-09T17:09:18.029Z,5326
2022-08-09T17:14:16.152Z,5333
2022-08-09T17:19:25.584Z,5340
2022-08-09T17:24:41.296Z,5338
2022-08-09T17:29:50.769Z,5326
2022-08-09T17:35:11.160Z,5336
2022-08-09T17:40:18.294Z,5349
2022-08-09T17:45:37.785Z,5347
2022-08-09T17:50:48.647Z,5342
2022-08-09T17:56:00.161Z,5340
2022-08-09T18:01:06.837Z,5255
2022-08-09T18:11:31.155Z,5333
2022-08-09T18:16:48.719Z,5331
2022-08-09T18:21:55.618Z,5326
2022-08-09T18:27:08.072Z,5292
2022-08-09T18:32:20.163Z,5292
2022-08-09T18:37:46.820Z,4963
2022-08-09T18:42:44.625Z,4422
2022-08-09T18:53:13.463Z,2640
2022-08-09T18:58:32.388Z,834
2022-08-09T19:03:54.789Z,257
2022-08-09T19:08:54.826Z,0
2022-08-09T19:14:07.081Z,0
2022-08-09T19:19:21.452Z,0
2022-08-09T19:24:38.144Z,0
2022-08-09T19:30:21.990Z,0
2022-08-09T19:34:56.032Z,0
2022-08-09T19:40:08.423Z,0
2022-08-09T19:45:20.579Z,0
2022-08-09T19:50:48.739Z,0
2022-08-09T19:55:53.290Z,0
2022-08-09T20:00:57.646Z,0
2022-08-09T20:06:10.401Z,0
2022-08-09T20:11:26.035Z,0
2022-08-09T20:16:48.999Z,0
2022-08-09T20:21:55.425Z,0
2022-08-09T20:26:59.162Z,0
2022-08-09T20:32:22.521Z,0
2022-08-09T20:37:23.733Z,0
2022-08-09T20:42:37.700Z,0
2022-08-09T20:47:48.834Z,0
2022-08-09T20:53:00.799Z,0
2022-08-09T20:58:20.439Z,0
2022-08-09T21:03:25.041Z,0
2022-08-09T21:08:40.235Z,0
2022-08-09T21:14:00.026Z,0
2022-08-09T21:20:04.976Z,0
2022-08-09T21:24:19.317Z,0
2022-08-09T21:29:29.692Z,0
2022-08-09T21:34:45.024Z,0
2022-08-09T21:39:54.477Z,0
2022-08-09T21:45:06.720Z,0
2022-08-09T21:50:22.309Z,0
2022-08-09T21:55:31.701Z,0
2022-08-09T22:00:43.928Z,0
2022-08-09T22:05:57.955Z,0
2022-08-09T22:11:50.896Z,0
2022-08-09T22:16:20.796Z,0
2022-08-09T22:21:44.926Z,0
2022-08-09T22:26:47.791Z,0
2022-08-09T22:31:58.040Z,0
2022-08-09T22:37:10.012Z,0
2022-08-09T22:42:23.228Z,0
2022-08-09T22:48:06.441Z,0
2022-08-09T22:52:46.738Z,0
2022-08-09T22:58:00.394Z,0
2022-08-09T23:03:12.519Z,0
2022-08-09T23:08:29.425Z,0
2022-08-09T23:13:36.300Z,0
2022-08-09T23:24:01.595Z,0
2022-08-09T23:29:13.391Z,0
2022-08-09T23:34:25.765Z,0
2022-08-09T23:39:38.247Z,0
2022-08-09T23:44:50.539Z,0
2022-08-09T23:50:03.050Z,0
2022-08-09T23:55:15.176Z,0
